Terminal Aerodrome Forecast
Issued by NWS Newport/Morehead City, NC

Home | Current Version | Previous Version | Text Only | Print | Product List | Glossary Off
Versions: 1 2 3 4 5 6 7 8 9 10 11 12 13 14 15 16 17 18 19 20

000
FTUS42 KMHX 271100
TAFEWN
TAF
KEWN 271137Z 2712/2812 22003KT 4SM BR SCT004
     FM271230 23008KT P6SM SCT030 BKN250
     FM271900 24010KT P6SM BKN040 BKN250
     FM280100 20010KT P6SM SCT100=

USA.gov is the U.S. government's official web portal to all federal, state and local government web resources and services.